createdAt,value
2019-05-26T00:00:45.288Z,5.37
2019-05-26T00:03:14.206Z,5.03
2019-05-26T00:05:43.128Z,5.07
2019-05-26T00:08:12.043Z,5.43
2019-05-26T00:10:41.126Z,5.27
2019-05-26T00:13:10.030Z,5.58
2019-05-26T00:15:39.527Z,5.90
2019-05-26T00:18:08.430Z,5.10
2019-05-26T00:20:37.350Z,5.58
2019-05-26T00:23:07.122Z,5.30
2019-05-26T00:25:35.957Z,5.23
2019-05-26T00:28:05.470Z,5.67
2019-05-26T00:30:34.458Z,5.22
2019-05-26T00:33:03.387Z,4.57
2019-05-26T00:35:32.586Z,5.43
2019-05-26T00:38:01.507Z,5.17
2019-05-26T00:40:30.506Z,4.97
2019-05-26T00:42:59.494Z,4.90
2019-05-26T00:45:28.490Z,5.70
2019-05-26T00:47:57.470Z,5.23
2019-05-26T00:50:26.626Z,5.43
2019-05-26T00:52:56.876Z,5.83
2019-05-26T00:55:26.109Z,4.90
2019-05-26T00:57:55.341Z,5.00
2019-05-26T01:00:38.445Z,5.10
2019-05-26T01:03:07.768Z,5.53
2019-05-26T01:05:36.857Z,5.23
2019-05-26T01:08:07.074Z,5.43
2019-05-26T01:10:36.695Z,5.97
2019-05-26T01:13:06.626Z,5.53
2019-05-26T01:15:35.638Z,6.10
2019-05-26T01:18:05.575Z,6.33
2019-05-26T01:20:34.820Z,5.57
2019-05-26T01:23:04.211Z,6.57
2019-05-26T01:25:33.194Z,6.23
2019-05-26T01:28:02.051Z,5.93
2019-05-26T01:30:35.988Z,5.70
2019-05-26T01:33:05.903Z,6.03
2019-05-26T01:35:36.716Z,6.10
2019-05-26T01:38:20.605Z,6.43
2019-05-26T01:40:39.117Z,6.43
2019-05-26T01:43:08.317Z,7.60
2019-05-26T01:45:37.412Z,6.57
2019-05-26T01:48:07.542Z,5.30
2019-05-26T01:50:36.866Z,6.40
2019-05-26T01:53:07.337Z,5.90
2019-05-26T01:55:36.419Z,5.20
2019-05-26T01:58:05.699Z,5.47
2019-05-26T02:00:34.807Z,5.20
2019-05-26T02:03:04.087Z,6.03
2019-05-26T02:05:33.108Z,5.50
2019-05-26T02:08:02.092Z,6.00
2019-05-26T02:10:31.069Z,6.10
2019-05-26T02:13:00.092Z,6.30
2019-05-26T02:15:29.131Z,7.43
2019-05-26T02:17:58.129Z,6.80
2019-05-26T02:20:27.103Z,7.17
2019-05-26T02:22:56.343Z,6.73
2019-05-26T02:25:25.538Z,6.20
2019-05-26T02:27:54.794Z,6.70
2019-05-26T02:30:24.064Z,6.10
2019-05-26T02:32:53.009Z,6.97
2019-05-26T02:35:23.476Z,6.67
2019-05-26T02:37:52.783Z,6.30
2019-05-26T02:40:22.363Z,6.37
2019-05-26T02:42:51.360Z,6.10
2019-05-26T02:45:21.848Z,6.77
2019-05-26T02:47:50.760Z,5.90
2019-05-26T02:50:20.151Z,6.90
2019-05-26T02:52:49.166Z,6.37
2019-05-26T02:55:18.555Z,5.70
2019-05-26T02:57:47.805Z,5.93
2019-05-26T03:00:25.359Z,6.60
2019-05-26T03:02:54.344Z,5.63
2019-05-26T03:05:23.246Z,6.40
2019-05-26T03:07:52.338Z,6.17
2019-05-26T03:10:21.371Z,6.50
2019-05-26T03:12:52.635Z,5.90
2019-05-26T03:15:22.074Z,5.50
2019-05-26T03:17:52.771Z,6.37
2019-05-26T03:20:21.983Z,5.23
2019-05-26T03:22:52.450Z,5.40
2019-05-26T03:25:21.359Z,6.10
2019-05-26T03:27:50.287Z,5.30
2019-05-26T03:30:19.195Z,5.33
2019-05-26T03:32:48.195Z,5.83
2019-05-26T03:35:17.193Z,5.17
2019-05-26T03:37:46.101Z,5.30
2019-05-26T03:40:15.347Z,5.57
2019-05-26T03:42:44.219Z,5.27
2019-05-26T03:45:22.763Z,5.53
2019-05-26T03:47:52.037Z,5.90
2019-05-26T03:50:21.497Z,5.40
2019-05-26T03:52:50.680Z,6.07
2019-05-26T03:55:19.586Z,6.37
2019-05-26T03:57:48.754Z,6.43
2019-05-26T04:00:17.971Z,5.63
2019-05-26T04:02:46.886Z,6.03
2019-05-26T04:05:15.798Z,6.33
2019-05-26T04:07:44.650Z,6.17
2019-05-26T04:10:13.727Z,5.90
2019-05-26T04:12:42.711Z,5.40
2019-05-26T04:15:11.794Z,5.40
2019-05-26T04:17:40.813Z,6.23
2019-05-26T04:20:10.095Z,6.30
2019-05-26T04:22:38.942Z,6.80
2019-05-26T04:25:08.252Z,6.50
2019-05-26T04:27:37.168Z,6.80
2019-05-26T04:30:06.456Z,8.50
2019-05-26T04:32:35.696Z,7.90
2019-05-26T04:35:05.704Z,9.30
2019-05-26T04:37:34.588Z,8.83
2019-05-26T04:40:22.470Z,8.60
2019-05-26T04:42:34.388Z,9.53
2019-05-26T04:45:03.464Z,9.43
2019-05-26T04:47:32.305Z,10.23
2019-05-26T04:50:01.566Z,10.23
2019-05-26T04:52:30.854Z,9.93
2019-05-26T04:54:59.776Z,10.60
2019-05-26T04:57:28.618Z,10.37
2019-05-26T04:59:57.540Z,10.57
2019-05-26T05:02:26.560Z,10.90
2019-05-26T05:04:55.576Z,11.00
2019-05-26T05:07:28.057Z,11.80
2019-05-26T05:09:55.052Z,11.63
2019-05-26T05:12:23.967Z,11.00
2019-05-26T05:14:53.138Z,11.70
2019-05-26T05:17:21.974Z,12.05
2019-05-26T05:19:50.826Z,12.30
2019-05-26T05:22:20.027Z,14.57
2019-05-26T05:24:48.875Z,13.57
2019-05-26T05:27:17.859Z,13.60
2019-05-26T05:29:46.702Z,14.03
2019-05-26T05:32:15.682Z,13.07
2019-05-26T05:34:44.679Z,14.13
2019-05-26T05:37:13.514Z,13.90
2019-05-26T05:39:42.371Z,14.90
2019-05-26T05:42:11.609Z,13.70
2019-05-26T05:44:40.846Z,13.83
2019-05-26T05:47:09.754Z,13.73
2019-05-26T05:49:38.684Z,13.27
2019-05-26T05:52:07.584Z,13.32
2019-05-26T05:54:36.588Z,12.90
2019-05-26T05:57:05.819Z,13.05
2019-05-26T05:59:34.746Z,13.25
2019-05-26T06:02:03.734Z,12.40
2019-05-26T06:04:32.654Z,11.00
2019-05-26T06:07:02.059Z,11.00
2019-05-26T06:09:31.058Z,10.98
2019-05-26T06:11:59.904Z,10.23
2019-05-26T06:14:29.175Z,10.85
2019-05-26T06:16:58.762Z,9.95
2019-05-26T06:19:33.458Z,10.63
2019-05-26T06:22:02.453Z,9.85
2019-05-26T06:24:34.865Z,9.45
2019-05-26T06:27:04.032Z,9.45
2019-05-26T06:29:32.873Z,9.38
2019-05-26T06:32:02.315Z,9.15
2019-05-26T06:34:32.031Z,8.75
2019-05-26T06:37:00.880Z,8.38
2019-05-26T06:39:29.791Z,8.05
2019-05-26T06:41:58.694Z,8.83
2019-05-26T06:44:28.254Z,8.95
2019-05-26T06:46:57.169Z,8.90
2019-05-26T06:49:26.236Z,9.08
2019-05-26T06:51:55.219Z,9.15
2019-05-26T06:54:24.395Z,9.00
2019-05-26T06:56:53.387Z,8.88
2019-05-26T06:59:22.531Z,8.58
2019-05-26T07:01:51.716Z,7.80
2019-05-26T07:04:20.922Z,7.92
2019-05-26T07:06:49.783Z,8.10
2019-05-26T07:09:18.795Z,7.08
2019-05-26T07:11:57.085Z,9.20
2019-05-26T07:14:18.611Z,6.53
2019-05-26T07:16:47.770Z,11.90
2019-05-26T07:19:16.907Z,7.50
2019-05-26T07:21:46.162Z,7.37
2019-05-26T07:24:14.997Z,7.37
2019-05-26T07:26:43.839Z,6.80
2019-05-26T07:29:13.038Z,7.25
2019-05-26T07:31:41.906Z,6.87
2019-05-26T07:34:10.806Z,7.20
2019-05-26T07:36:39.911Z,7.40
2019-05-26T07:39:09.469Z,6.65
2019-05-26T07:41:38.387Z,6.35
2019-05-26T07:44:07.290Z,5.83
2019-05-26T07:46:36.223Z,6.85
2019-05-26T07:49:05.130Z,5.62
2019-05-26T07:51:34.375Z,6.33
2019-05-26T07:54:03.808Z,4.30
2019-05-26T07:56:32.944Z,5.10
2019-05-26T07:59:01.855Z,3.92
2019-05-26T08:01:36.177Z,4.67
2019-05-26T08:04:01.583Z,3.67
2019-05-26T08:06:30.510Z,4.28
2019-05-26T08:08:59.414Z,3.90
2019-05-26T08:11:28.264Z,3.80
2019-05-26T08:13:57.093Z,3.77
2019-05-26T08:16:26.100Z,3.45
2019-05-26T08:18:54.940Z,3.77
2019-05-26T08:21:23.852Z,3.77
2019-05-26T08:23:52.774Z,3.83
2019-05-26T08:26:21.618Z,3.52
2019-05-26T08:28:50.738Z,3.70
2019-05-26T08:31:19.906Z,3.70
2019-05-26T08:33:48.742Z,3.70
2019-05-26T08:36:17.683Z,4.12
2019-05-26T08:38:46.590Z,3.22
2019-05-26T08:41:15.533Z,4.28
2019-05-26T08:43:44.407Z,3.30
2019-05-26T08:46:13.495Z,3.70
2019-05-26T08:48:42.397Z,3.55
2019-05-26T08:51:11.666Z,3.40
2019-05-26T08:53:40.570Z,3.52
2019-05-26T08:56:09.826Z,3.23
2019-05-26T08:58:38.670Z,3.50
2019-05-26T09:01:07.865Z,3.77
2019-05-26T09:03:36.795Z,3.60
2019-05-26T09:06:05.819Z,3.45
2019-05-26T09:08:35.090Z,3.08
2019-05-26T09:11:04.083Z,3.40
2019-05-26T09:13:33.012Z,3.70
2019-05-26T09:16:02.204Z,3.47
2019-05-26T09:18:31.354Z,3.27
2019-05-26T09:21:00.671Z,3.45
2019-05-26T09:23:29.617Z,3.72
2019-05-26T09:25:58.527Z,3.67
2019-05-26T09:28:27.671Z,3.33
2019-05-26T09:30:56.618Z,3.15
2019-05-26T09:33:25.608Z,3.55
2019-05-26T09:35:54.602Z,2.47
2019-05-26T09:38:23.607Z,3.40
2019-05-26T09:40:52.595Z,3.15
2019-05-26T09:43:21.660Z,2.70
2019-05-26T09:45:50.948Z,2.85
2019-05-26T09:48:19.926Z,2.70
2019-05-26T09:50:48.770Z,2.60
2019-05-26T09:53:17.692Z,2.70
2019-05-26T09:55:46.644Z,2.42
2019-05-26T09:58:15.538Z,2.40
2019-05-26T10:00:44.862Z,2.50
2019-05-26T10:03:14.215Z,1.98
2019-05-26T10:05:43.486Z,2.50
2019-05-26T10:08:12.402Z,1.70
2019-05-26T10:10:41.399Z,2.20
2019-05-26T10:13:10.264Z,2.95
2019-05-26T10:15:39.259Z,2.27
2019-05-26T10:18:08.262Z,2.17
2019-05-26T10:20:37.112Z,2.00
2019-05-26T10:23:06.144Z,1.70
2019-05-26T10:25:35.050Z,1.92
2019-05-26T10:28:04.061Z,1.77
2019-05-26T10:30:33.293Z,1.77
2019-05-26T10:33:02.306Z,1.60
2019-05-26T10:35:31.570Z,2.37
2019-05-26T10:38:00.727Z,2.25
2019-05-26T10:40:29.970Z,1.85
2019-05-26T10:42:58.974Z,2.30
2019-05-26T10:45:28.294Z,2.45
2019-05-26T10:47:57.607Z,1.95
2019-05-26T10:50:26.610Z,2.37
2019-05-26T10:52:55.543Z,1.80
2019-05-26T10:55:24.732Z,2.00
2019-05-26T10:57:53.814Z,1.87
2019-05-26T11:00:22.925Z,1.90
2019-05-26T11:02:51.919Z,2.35
2019-05-26T11:05:20.917Z,1.80
2019-05-26T11:07:49.767Z,2.10
2019-05-26T11:10:18.770Z,1.95
2019-05-26T11:12:47.691Z,1.77
2019-05-26T11:15:17.390Z,1.92
2019-05-26T11:17:46.322Z,1.90
2019-05-26T11:20:16.095Z,1.90
2019-05-26T11:25:16.266Z,2.20
2019-05-26T11:27:45.178Z,1.80
2019-05-26T11:30:14.584Z,1.82
2019-05-26T11:32:43.627Z,1.85
2019-05-26T11:35:14.466Z,2.00
2019-05-26T11:37:43.381Z,2.27
2019-05-26T11:40:12.780Z,1.80
2019-05-26T11:42:44.638Z,1.90
2019-05-26T11:45:12.965Z,1.90
2019-05-26T11:47:41.948Z,2.00
2019-05-26T11:50:11.500Z,1.80
2019-05-26T11:52:40.448Z,2.17
2019-05-26T11:55:09.538Z,2.27
2019-05-26T11:57:38.671Z,1.70
2019-05-26T12:00:08.831Z,2.12
2019-05-26T12:02:38.739Z,1.80
2019-05-26T12:05:09.414Z,2.30
2019-05-26T12:07:38.396Z,2.02
2019-05-26T12:10:07.967Z,2.00
2019-05-26T12:12:36.903Z,1.77
2019-05-26T12:15:06.465Z,2.10
2019-05-26T12:17:35.631Z,1.80
2019-05-26T12:20:05.671Z,2.00
2019-05-26T12:22:35.359Z,1.92
2019-05-26T12:25:23.475Z,1.65
2019-05-26T12:27:52.556Z,1.62
2019-05-26T12:30:23.024Z,1.60
2019-05-26T12:32:51.949Z,2.02
2019-05-26T12:35:20.958Z,2.20
2019-05-26T12:37:49.809Z,2.10
2019-05-26T12:40:19.424Z,2.00
2019-05-26T12:42:48.431Z,2.00
2019-05-26T12:45:17.938Z,2.37
2019-05-26T12:47:46.940Z,1.52
2019-05-26T12:50:17.747Z,1.90
2019-05-26T12:52:47.001Z,1.77
2019-05-26T12:55:16.144Z,2.27
2019-05-26T12:57:45.459Z,1.70
2019-05-26T13:00:15.437Z,2.12
2019-05-26T13:02:44.382Z,1.72
2019-05-26T13:05:13.536Z,1.98
2019-05-26T13:07:42.377Z,2.10
2019-05-26T13:10:11.483Z,2.25
2019-05-26T13:12:40.594Z,1.92
2019-05-26T13:15:10.810Z,1.90
2019-05-26T13:17:39.811Z,1.90
2019-05-26T13:20:09.736Z,2.00
2019-05-26T13:22:39.923Z,2.45
2019-05-26T13:25:10.211Z,2.30
2019-05-26T13:27:39.443Z,2.02
2019-05-26T13:30:09.550Z,1.82
2019-05-26T13:32:38.769Z,2.10
2019-05-26T13:35:08.331Z,2.05
2019-05-26T13:37:37.650Z,1.72
2019-05-26T13:40:07.974Z,1.80
2019-05-26T13:42:38.016Z,1.90
2019-05-26T13:45:21.217Z,2.02
2019-05-26T13:47:38.339Z,1.98
2019-05-26T13:50:08.513Z,1.80
2019-05-26T13:52:37.739Z,1.70
2019-05-26T13:55:07.136Z,1.77
2019-05-26T13:57:36.503Z,2.20
2019-05-26T14:00:07.612Z,1.65
2019-05-26T14:02:36.963Z,1.95
2019-05-26T14:05:06.439Z,1.82
2019-05-26T14:07:35.443Z,1.52
2019-05-26T14:10:04.778Z,1.70
2019-05-26T14:12:33.788Z,1.60
2019-05-26T14:15:02.921Z,1.30
2019-05-26T14:17:33.714Z,1.62
2019-05-26T14:20:04.227Z,1.70
2019-05-26T14:22:33.201Z,1.67
2019-05-26T14:25:02.211Z,1.80
2019-05-26T14:27:31.258Z,1.30
2019-05-26T14:30:00.448Z,1.35
2019-05-26T14:32:29.530Z,1.70
2019-05-26T14:34:58.557Z,1.67
2019-05-26T14:37:27.503Z,1.75
2019-05-26T14:39:56.848Z,1.87
2019-05-26T14:42:25.746Z,2.02
2019-05-26T14:44:54.831Z,1.95
2019-05-26T14:47:23.942Z,1.70
2019-05-26T14:49:53.416Z,1.85
2019-05-26T14:52:22.795Z,1.80
2019-05-26T14:54:52.826Z,1.47
2019-05-26T14:57:21.800Z,1.95
2019-05-26T14:59:50.995Z,1.70
2019-05-26T15:02:20.056Z,2.00
2019-05-26T15:04:49.086Z,1.65
2019-05-26T15:07:18.147Z,1.90
2019-05-26T15:09:47.192Z,1.60
2019-05-26T15:12:16.616Z,2.30
2019-05-26T15:14:45.527Z,1.67
2019-05-26T15:17:14.534Z,1.57
2019-05-26T15:19:43.530Z,1.60
2019-05-26T15:22:12.539Z,1.52
2019-05-26T15:24:41.679Z,1.40
2019-05-26T15:27:10.956Z,1.60
2019-05-26T15:29:39.882Z,2.08
2019-05-26T15:32:09.136Z,1.72
2019-05-26T15:34:38.121Z,1.98
2019-05-26T15:37:07.111Z,1.60
2019-05-26T15:39:35.955Z,1.52
2019-05-26T15:42:08.230Z,1.70
2019-05-26T15:44:36.089Z,1.72
2019-05-26T15:47:05.263Z,1.62
2019-05-26T15:49:34.172Z,2.15
2019-05-26T15:52:03.122Z,1.72
2019-05-26T15:54:31.977Z,1.67
2019-05-26T15:57:01.207Z,1.70
2019-05-26T15:59:30.241Z,2.45
2019-05-26T16:01:59.514Z,2.10
2019-05-26T16:04:28.702Z,1.98
2019-05-26T16:06:58.104Z,1.95
2019-05-26T16:09:27.030Z,1.95
2019-05-26T16:11:56.335Z,1.92
2019-05-26T16:14:25.331Z,1.90
2019-05-26T16:16:54.478Z,1.72
2019-05-26T16:19:23.490Z,1.62
2019-05-26T16:21:52.403Z,1.75
2019-05-26T16:24:21.312Z,1.98
2019-05-26T16:26:50.309Z,1.98
2019-05-26T16:29:19.171Z,1.40
2019-05-26T16:31:48.259Z,1.98
2019-05-26T16:34:17.343Z,1.80
2019-05-26T16:36:46.338Z,2.10
2019-05-26T16:39:15.569Z,1.87
2019-05-26T16:41:44.406Z,2.10
2019-05-26T16:44:13.342Z,1.92
2019-05-26T16:46:55.379Z,1.90
2019-05-26T16:49:13.347Z,1.80
2019-05-26T16:51:42.266Z,1.60
2019-05-26T16:54:11.119Z,1.90
2019-05-26T16:56:40.040Z,1.82
2019-05-26T16:59:09.004Z,2.17
2019-05-26T17:01:37.853Z,1.80
2019-05-26T17:04:06.928Z,1.82
2019-05-26T17:06:35.762Z,1.87
2019-05-26T17:09:07.043Z,2.12
2019-05-26T17:11:36.032Z,1.77
2019-05-26T17:14:05.187Z,2.02
2019-05-26T17:16:34.166Z,1.70
2019-05-26T17:19:18.491Z,1.85
2019-05-26T17:21:47.830Z,1.80
2019-05-26T17:24:16.867Z,1.65
2019-05-26T17:26:45.859Z,2.10
2019-05-26T17:29:14.788Z,1.87
2019-05-26T17:31:43.694Z,2.00
2019-05-26T17:34:12.794Z,1.67
2019-05-26T17:36:41.748Z,1.98
2019-05-26T17:39:10.807Z,1.90
2019-05-26T17:41:39.966Z,1.90
2019-05-26T17:44:08.885Z,1.55
2019-05-26T17:46:38.291Z,1.95
2019-05-26T17:49:07.514Z,1.92
2019-05-26T17:51:36.511Z,1.92
2019-05-26T17:54:05.615Z,2.17
2019-05-26T17:56:34.874Z,1.80
2019-05-26T17:59:03.999Z,1.92
2019-05-26T18:01:32.995Z,3.20
2019-05-26T18:04:01.918Z,3.30
2019-05-26T18:06:30.827Z,2.25
2019-05-26T18:08:59.817Z,1.87
2019-05-26T18:11:28.850Z,2.37
2019-05-26T18:13:57.722Z,2.33
2019-05-26T18:16:26.641Z,2.17
2019-05-26T18:18:55.570Z,1.90
2019-05-26T18:21:24.471Z,1.90
2019-05-26T18:23:53.313Z,2.30
2019-05-26T18:26:22.332Z,2.05
2019-05-26T18:28:51.284Z,2.00
2019-05-26T18:31:20.187Z,1.98
2019-05-26T18:33:49.031Z,2.08
2019-05-26T18:36:18.506Z,2.02
2019-05-26T18:38:47.424Z,2.12
2019-05-26T18:41:16.338Z,2.22
2019-05-26T18:43:45.246Z,2.70
2019-05-26T18:46:14.269Z,2.40
2019-05-26T18:48:43.477Z,2.20
2019-05-26T18:51:12.698Z,2.20
2019-05-26T18:53:41.614Z,2.45
2019-05-26T18:56:10.602Z,2.20
2019-05-26T18:58:39.518Z,2.25
2019-05-26T19:01:08.673Z,2.30
2019-05-26T19:03:37.572Z,2.27
2019-05-26T19:06:06.563Z,2.72
2019-05-26T19:08:35.542Z,2.55
2019-05-26T19:11:04.555Z,2.90
2019-05-26T19:13:33.386Z,2.55
2019-05-26T19:16:02.295Z,2.40
2019-05-26T19:18:31.194Z,2.50
2019-05-26T19:21:00.352Z,2.75
2019-05-26T19:23:29.267Z,2.52
2019-05-26T19:25:58.101Z,2.67
2019-05-26T19:28:27.342Z,2.50
2019-05-26T19:30:56.554Z,2.40
2019-05-26T19:33:25.975Z,2.37
2019-05-26T19:35:55.158Z,3.10
2019-05-26T19:38:24.011Z,3.00
2019-05-26T19:40:53.181Z,2.70
2019-05-26T19:43:22.241Z,3.05
2019-05-26T19:45:51.092Z,3.00
2019-05-26T19:48:35.035Z,3.12
2019-05-26T19:50:50.982Z,3.00
2019-05-26T19:53:20.133Z,3.17
2019-05-26T19:55:49.226Z,3.42
2019-05-26T19:58:18.237Z,34.25
2019-05-26T20:00:47.231Z,4.47
2019-05-26T20:03:16.156Z,3.90
2019-05-26T20:05:45.347Z,4.20
2019-05-26T20:08:14.250Z,4.10
2019-05-26T20:10:43.239Z,4.50
2019-05-26T20:13:12.230Z,4.00
2019-05-26T20:15:41.661Z,4.58
2019-05-26T20:18:10.650Z,4.50
2019-05-26T20:20:39.558Z,3.98
2019-05-26T20:23:08.538Z,4.72
2019-05-26T20:25:37.456Z,4.87
2019-05-26T20:28:06.746Z,3.92
2019-05-26T20:30:35.598Z,4.17
2019-05-26T20:33:04.578Z,4.35
2019-05-26T20:35:33.419Z,4.33
2019-05-26T20:38:02.335Z,4.28
2019-05-26T20:40:31.340Z,4.80
2019-05-26T20:43:19.393Z,5.35
2019-05-26T20:45:51.698Z,4.83
2019-05-26T20:48:20.910Z,5.03
2019-05-26T20:50:49.835Z,4.95
2019-05-26T20:53:18.751Z,4.90
2019-05-26T20:55:47.828Z,5.50
2019-05-26T20:58:16.762Z,5.47
2019-05-26T21:00:45.681Z,4.92
2019-05-26T21:03:14.594Z,6.00
2019-05-26T21:05:43.503Z,5.90
2019-05-26T21:08:12.364Z,5.42
2019-05-26T21:10:41.273Z,5.77
2019-05-26T21:13:10.202Z,5.28
2019-05-26T21:15:39.044Z,5.08
2019-05-26T21:18:08.010Z,4.87
2019-05-26T21:20:37.218Z,5.33
2019-05-26T21:23:06.418Z,5.25
2019-05-26T21:25:35.558Z,6.22
2019-05-26T21:28:05.323Z,4.80
2019-05-26T21:30:34.462Z,5.20
2019-05-26T21:33:03.943Z,4.70
2019-05-26T21:35:32.854Z,4.63
2019-05-26T21:38:01.705Z,4.37
2019-05-26T21:40:30.912Z,4.97
2019-05-26T21:42:59.742Z,4.67
2019-05-26T21:45:28.732Z,4.90
2019-05-26T21:47:58.138Z,5.13
2019-05-26T21:50:27.063Z,4.55
2019-05-26T21:52:56.221Z,5.03
2019-05-26T21:55:25.134Z,5.27
2019-05-26T21:57:54.002Z,5.30
2019-05-26T22:00:27.083Z,5.57
2019-05-26T22:02:56.164Z,5.33
2019-05-26T22:05:25.762Z,5.60
2019-05-26T22:07:54.690Z,5.43
2019-05-26T22:10:23.665Z,5.67
2019-05-26T22:12:52.511Z,5.27
2019-05-26T22:15:21.499Z,6.20
2019-05-26T22:17:50.347Z,5.77
2019-05-26T22:20:19.765Z,6.15
2019-05-26T22:22:48.680Z,5.67
2019-05-26T22:25:17.657Z,5.73
2019-05-26T22:27:46.584Z,6.37
2019-05-26T22:30:16.002Z,5.83
2019-05-26T22:32:45.012Z,6.13
2019-05-26T22:35:14.139Z,6.17
2019-05-26T22:37:43.167Z,6.67
2019-05-26T22:40:12.262Z,5.90
2019-05-26T22:42:41.180Z,6.50
2019-05-26T22:45:10.754Z,6.77
2019-05-26T22:47:39.759Z,7.40
2019-05-26T22:50:09.990Z,6.93
2019-05-26T22:52:39.050Z,6.80
2019-05-26T22:55:08.733Z,7.10
2019-05-26T22:57:37.706Z,7.27
2019-05-26T23:00:08.525Z,7.10
2019-05-26T23:02:37.427Z,7.17
2019-05-26T23:05:07.171Z,6.50
2019-05-26T23:07:36.117Z,6.80
2019-05-26T23:10:07.286Z,6.93
2019-05-26T23:12:36.222Z,6.97
2019-05-26T23:15:05.909Z,6.43
2019-05-26T23:17:35.174Z,6.20
2019-05-26T23:20:23.690Z,6.57
2019-05-26T23:22:53.182Z,6.87
2019-05-26T23:25:22.110Z,6.65
2019-05-26T23:27:51.254Z,6.50
2019-05-26T23:30:23.530Z,6.30
2019-05-26T23:32:52.831Z,6.30
2019-05-26T23:35:22.749Z,6.83
2019-05-26T23:37:52.169Z,7.03
2019-05-26T23:40:21.169Z,7.00
2019-05-26T23:42:50.284Z,7.40
2019-05-26T23:45:20.478Z,7.93
2019-05-26T23:47:49.628Z,8.07
2019-05-26T23:50:18.738Z,7.53
2019-05-26T23:52:47.757Z,8.70
2019-05-26T23:55:16.823Z,9.23
2019-05-26T23:57:45.869Z,9.23
